createdAt,value
2023-05-16T00:01:48.744Z,13.60
2023-05-16T00:04:15.496Z,13.60
2023-05-16T00:06:42.207Z,13.60
2023-05-16T00:09:08.818Z,13.60
2023-05-16T00:11:35.419Z,13.60
2023-05-16T00:14:02.628Z,13.70
2023-05-16T00:16:30.331Z,13.60
2023-05-16T00:19:00.955Z,13.70
2023-05-16T00:21:28.126Z,13.70
2023-05-16T00:23:54.682Z,13.70
2023-05-16T00:26:21.644Z,13.70
2023-05-16T00:28:48.367Z,13.80
2023-05-16T00:31:14.948Z,13.80
2023-05-16T00:33:41.528Z,13.80
2023-05-16T00:36:08.317Z,13.80
2023-05-16T00:38:34.863Z,13.80
2023-05-16T00:41:01.581Z,13.80
2023-05-16T00:43:28.110Z,13.80
2023-05-16T00:45:54.730Z,13.80
2023-05-16T00:48:21.310Z,13.80
2023-05-16T00:50:49.412Z,13.80
2023-05-16T00:53:16.683Z,13.80
2023-05-16T00:55:43.840Z,13.80
2023-05-16T00:58:11.720Z,13.80
2023-05-16T01:00:38.386Z,13.80
2023-05-16T01:03:05.547Z,13.80
2023-05-16T01:05:32.462Z,13.70
2023-05-16T01:07:59.295Z,13.70
2023-05-16T01:10:27.072Z,13.60
2023-05-16T01:13:16.045Z,13.50
2023-05-16T01:15:56.476Z,13.50
2023-05-16T01:18:30.872Z,13.40
2023-05-16T01:21:04.029Z,13.30
2023-05-16T01:23:30.730Z,13.20
2023-05-16T01:26:11.867Z,13.10
2023-05-16T01:28:39.412Z,13.10
2023-05-16T01:31:06.310Z,13.00
2023-05-16T01:33:32.917Z,12.90
2023-05-16T01:36:22.117Z,12.80
2023-05-16T01:39:04.224Z,12.80
2023-05-16T01:41:39.139Z,12.70
2023-05-16T01:44:08.003Z,12.80
2023-05-16T01:46:38.957Z,12.70
2023-05-16T01:49:26.665Z,12.70
2023-05-16T01:52:00.064Z,12.70
2023-05-16T01:54:29.688Z,12.60
2023-05-16T01:56:56.976Z,12.60
2023-05-16T01:59:24.822Z,12.50
2023-05-16T02:01:53.404Z,12.50
2023-05-16T02:04:19.992Z,12.50
2023-05-16T02:06:46.679Z,12.40
2023-05-16T02:09:13.223Z,12.40
2023-05-16T02:11:39.740Z,12.40
2023-05-16T02:14:06.290Z,12.40
2023-05-16T02:16:33.889Z,12.30
2023-05-16T02:19:00.538Z,12.30
2023-05-16T02:21:27.107Z,12.20
2023-05-16T02:23:53.633Z,12.20
2023-05-16T02:26:20.710Z,12.20
2023-05-16T02:28:49.405Z,12.20
2023-05-16T02:31:29.117Z,12.10
2023-05-16T02:33:55.920Z,12.00
2023-05-16T02:36:22.667Z,12.00
2023-05-16T02:38:49.179Z,12.00
2023-05-16T02:41:15.709Z,12.00
2023-05-16T02:43:46.233Z,11.90
2023-05-16T02:46:27.978Z,12.00
2023-05-16T02:48:54.802Z,11.90
2023-05-16T02:51:22.758Z,11.90
2023-05-16T02:53:49.667Z,11.90
2023-05-16T02:56:16.550Z,11.90
2023-05-16T02:58:43.514Z,11.90
2023-05-16T03:01:10.186Z,11.90
2023-05-16T03:03:37.193Z,11.90
2023-05-16T03:06:03.813Z,11.90
2023-05-16T03:08:30.701Z,11.90
2023-05-16T03:10:57.245Z,11.80
2023-05-16T03:13:23.892Z,11.80
2023-05-16T03:15:50.619Z,11.80
2023-05-16T03:18:17.173Z,11.80
2023-05-16T03:20:43.700Z,11.80
2023-05-16T03:23:10.389Z,11.80
2023-05-16T03:25:37.114Z,11.80
2023-05-16T03:28:05.072Z,11.80
2023-05-16T03:30:31.583Z,11.80
2023-05-16T03:32:58.244Z,11.80
2023-05-16T03:35:25.011Z,11.80
2023-05-16T03:37:51.744Z,11.80
2023-05-16T03:40:18.386Z,11.80
2023-05-16T03:42:44.929Z,11.80
2023-05-16T03:45:12.303Z,11.90
2023-05-16T03:47:38.962Z,12.00
2023-05-16T03:50:05.906Z,12.00
2023-05-16T03:52:32.440Z,12.00
2023-05-16T03:54:58.956Z,12.10
2023-05-16T03:57:25.575Z,12.10
2023-05-16T03:59:52.199Z,12.10
2023-05-16T04:02:19.122Z,12.20
2023-05-16T04:04:45.883Z,12.20
2023-05-16T04:07:12.511Z,12.20
2023-05-16T04:09:39.128Z,12.30
2023-05-16T04:12:06.074Z,12.30
2023-05-16T04:14:33.989Z,12.40
2023-05-16T04:17:01.075Z,12.40
2023-05-16T04:19:27.687Z,12.50
2023-05-16T04:21:54.319Z,12.50
2023-05-16T04:24:20.964Z,12.60
2023-05-16T04:26:47.528Z,12.60
2023-05-16T04:29:14.652Z,12.60
2023-05-16T04:31:41.231Z,12.70
2023-05-16T04:34:07.840Z,12.70
2023-05-16T04:36:35.489Z,12.70
2023-05-16T04:39:02.094Z,12.70
2023-05-16T04:41:28.599Z,12.70
2023-05-16T04:43:55.149Z,12.70
2023-05-16T04:46:21.866Z,12.80
2023-05-16T04:48:48.452Z,12.80
2023-05-16T04:51:15.002Z,12.80
2023-05-16T04:53:41.521Z,12.80
2023-05-16T04:56:08.095Z,12.90
2023-05-16T04:58:34.611Z,12.90
2023-05-16T05:01:01.833Z,12.90
2023-05-16T05:03:28.509Z,13.00
2023-05-16T05:05:55.068Z,13.00
2023-05-16T05:08:21.690Z,13.00
2023-05-16T05:10:48.229Z,13.00
2023-05-16T05:13:14.906Z,13.10
2023-05-16T05:15:41.426Z,13.10
2023-05-16T05:18:08.212Z,13.10
2023-05-16T05:20:35.672Z,13.10
2023-05-16T05:23:02.315Z,13.10
2023-05-16T05:25:29.074Z,13.10
2023-05-16T05:27:55.757Z,13.10
2023-05-16T05:30:22.387Z,13.10
2023-05-16T05:32:48.950Z,13.20
2023-05-16T05:35:15.725Z,13.20
2023-05-16T05:37:42.352Z,13.20
2023-05-16T05:40:09.169Z,13.30
2023-05-16T05:42:36.290Z,13.30
2023-05-16T05:45:02.888Z,13.30
2023-05-16T05:47:29.606Z,13.40
2023-05-16T05:49:56.333Z,13.40
2023-05-16T05:52:22.986Z,13.40
2023-05-16T05:54:49.518Z,13.50
2023-05-16T05:57:16.122Z,13.50
2023-05-16T05:59:42.621Z,13.50
2023-05-16T06:02:09.320Z,13.50
2023-05-16T06:04:36.435Z,13.60
2023-05-16T06:07:03.007Z,13.60
2023-05-16T06:09:29.585Z,13.60
2023-05-16T06:11:56.605Z,13.70
2023-05-16T06:14:23.126Z,13.80
2023-05-16T06:16:49.781Z,13.80
2023-05-16T06:19:16.526Z,13.90
2023-05-16T06:21:43.614Z,14.00
2023-05-16T06:24:10.170Z,14.10
2023-05-16T06:26:36.781Z,14.10
2023-05-16T06:29:03.467Z,14.20
2023-05-16T06:31:30.816Z,14.20
2023-05-16T06:33:57.389Z,14.30
2023-05-16T06:36:23.916Z,14.30
2023-05-16T06:38:50.922Z,14.40
2023-05-16T06:41:17.650Z,14.40
2023-05-16T06:43:44.293Z,14.50
2023-05-16T06:46:11.174Z,14.50
2023-05-16T06:48:37.812Z,14.60
2023-05-16T06:51:04.592Z,14.60
2023-05-16T06:53:31.376Z,14.70
2023-05-16T06:55:58.034Z,14.80
2023-05-16T06:58:24.774Z,14.80
2023-05-16T07:00:51.518Z,14.80
2023-05-16T07:03:18.436Z,14.90
2023-05-16T07:05:45.491Z,15.00
2023-05-16T07:08:12.367Z,15.00
2023-05-16T07:10:39.294Z,15.00
2023-05-16T07:13:06.906Z,15.10
2023-05-16T07:15:33.540Z,15.10
2023-05-16T07:18:00.183Z,15.00
2023-05-16T07:20:26.889Z,15.00
2023-05-16T07:22:53.472Z,15.00
2023-05-16T07:25:20.049Z,14.90
2023-05-16T07:27:46.597Z,14.90
2023-05-16T07:30:13.830Z,14.90
2023-05-16T07:32:40.720Z,14.90
2023-05-16T07:35:07.838Z,14.90
2023-05-16T07:37:34.416Z,14.90
2023-05-16T07:40:01.112Z,14.90
2023-05-16T07:42:27.730Z,14.90
2023-05-16T07:44:54.320Z,14.90
2023-05-16T07:47:20.986Z,14.90
2023-05-16T07:49:47.572Z,14.90
2023-05-16T07:52:14.164Z,14.90
2023-05-16T07:54:40.833Z,14.90
2023-05-16T07:57:07.581Z,15.00
2023-05-16T07:59:34.201Z,14.90
2023-05-16T08:02:00.996Z,14.90
2023-05-16T08:04:27.954Z,15.00
2023-05-16T08:06:55.016Z,15.00
2023-05-16T08:09:21.618Z,15.10
2023-05-16T08:11:48.266Z,15.20
2023-05-16T08:14:14.827Z,15.20
2023-05-16T08:16:41.486Z,15.20
2023-05-16T08:19:08.190Z,15.20
2023-05-16T08:21:34.846Z,15.20
2023-05-16T08:24:01.561Z,15.20
2023-05-16T08:26:28.317Z,15.10
2023-05-16T08:28:54.870Z,15.10
2023-05-16T08:31:21.634Z,15.10
2023-05-16T08:33:48.208Z,15.10
2023-05-16T08:36:18.754Z,15.00
2023-05-16T08:38:45.567Z,15.00
2023-05-16T08:41:12.184Z,15.00
2023-05-16T08:43:39.020Z,15.00
2023-05-16T08:46:06.956Z,15.10
2023-05-16T08:48:34.120Z,15.10
2023-05-16T08:51:01.508Z,15.20
2023-05-16T08:53:32.724Z,15.20
2023-05-16T08:55:59.961Z,15.20
2023-05-16T08:58:28.071Z,15.20
2023-05-16T09:00:54.961Z,15.30
2023-05-16T09:03:23.297Z,15.30
2023-05-16T09:05:50.204Z,15.30
2023-05-16T09:08:16.853Z,15.40
2023-05-16T09:10:43.422Z,15.30
2023-05-16T09:13:10.083Z,15.40
2023-05-16T09:15:36.810Z,15.40
2023-05-16T09:18:04.764Z,15.40
2023-05-16T09:20:31.447Z,15.40
2023-05-16T09:22:58.964Z,15.40
2023-05-16T09:25:31.790Z,15.40
2023-05-16T09:28:00.117Z,15.40
2023-05-16T09:30:31.434Z,15.40
2023-05-16T09:32:58.943Z,15.50
2023-05-16T09:35:39.891Z,15.50
2023-05-16T09:38:16.598Z,15.60
2023-05-16T09:40:44.444Z,15.70
2023-05-16T09:43:14.362Z,15.80
2023-05-16T09:45:45.052Z,15.80
2023-05-16T09:48:15.320Z,15.80
2023-05-16T09:50:46.338Z,15.90
2023-05-16T09:53:13.916Z,15.90
2023-05-16T09:55:40.579Z,16.00
2023-05-16T09:58:07.184Z,16.00
2023-05-16T10:00:34.197Z,16.00
2023-05-16T10:03:05.285Z,16.00
2023-05-16T10:05:33.054Z,16.00
2023-05-16T10:07:59.699Z,16.00
2023-05-16T10:10:26.654Z,16.10
2023-05-16T10:12:53.392Z,16.10
2023-05-16T10:15:20.865Z,16.20
2023-05-16T10:17:50.571Z,16.30
2023-05-16T10:20:17.412Z,16.30
2023-05-16T10:22:44.451Z,16.40
2023-05-16T10:25:17.142Z,16.50
2023-05-16T10:27:43.840Z,16.40
2023-05-16T10:30:11.117Z,16.40
2023-05-16T10:32:39.482Z,16.30
2023-05-16T10:35:08.594Z,16.20
2023-05-16T10:37:36.682Z,16.20
2023-05-16T10:40:06.994Z,16.00
2023-05-16T10:42:33.748Z,16.00
2023-05-16T10:45:15.901Z,16.00
2023-05-16T10:47:51.065Z,16.00
2023-05-16T10:50:30.618Z,15.90
2023-05-16T10:52:57.397Z,15.90
2023-05-16T10:55:23.951Z,15.90
2023-05-16T10:57:50.582Z,15.90
2023-05-16T11:00:23.386Z,16.00
2023-05-16T11:02:50.080Z,16.10
2023-05-16T11:05:19.074Z,16.10
2023-05-16T11:08:02.018Z,16.10
2023-05-16T11:10:28.594Z,16.10
2023-05-16T11:13:02.228Z,16.10
2023-05-16T11:15:31.477Z,16.10
2023-05-16T11:18:08.097Z,16.10
2023-05-16T11:20:35.950Z,16.20
2023-05-16T11:23:19.028Z,16.10
2023-05-16T11:25:46.262Z,16.20
2023-05-16T11:28:14.324Z,16.20
2023-05-16T11:30:49.505Z,16.20
2023-05-16T11:33:16.475Z,16.10
2023-05-16T11:35:43.516Z,16.10
2023-05-16T11:38:14.156Z,15.90
2023-05-16T11:40:42.566Z,15.90
2023-05-16T11:43:09.121Z,15.80
2023-05-16T11:45:38.494Z,15.80
2023-05-16T11:48:05.407Z,15.80
2023-05-16T11:50:34.315Z,15.80
2023-05-16T11:53:03.367Z,15.70
2023-05-16T11:55:41.400Z,15.70
2023-05-16T11:58:09.573Z,15.70
2023-05-16T12:00:36.454Z,15.70
2023-05-16T12:03:08.121Z,15.60
2023-05-16T12:05:35.779Z,15.70
2023-05-16T12:08:04.774Z,15.70
2023-05-16T12:10:31.757Z,15.80
2023-05-16T12:12:58.443Z,15.90
2023-05-16T12:15:25.336Z,16.00
2023-05-16T12:17:52.371Z,16.20
2023-05-16T12:20:19.131Z,16.30
2023-05-16T12:22:46.532Z,16.40
2023-05-16T12:25:22.664Z,16.50
2023-05-16T12:27:49.456Z,16.60
2023-05-16T12:30:18.930Z,16.70
2023-05-16T12:32:45.835Z,16.80
2023-05-16T12:35:13.177Z,16.80
2023-05-16T12:37:39.768Z,17.00
2023-05-16T12:40:06.804Z,17.10
2023-05-16T12:42:34.544Z,17.20
2023-05-16T12:45:01.253Z,17.20
2023-05-16T12:47:46.118Z,17.30
2023-05-16T12:50:17.490Z,17.30
2023-05-16T12:52:48.231Z,17.30
2023-05-16T12:55:15.449Z,17.20
2023-05-16T12:57:43.939Z,17.20
2023-05-16T13:00:12.479Z,17.20
2023-05-16T13:02:39.158Z,17.20
2023-05-16T13:05:07.537Z,17.10
2023-05-16T13:07:34.833Z,17.10
2023-05-16T13:10:01.598Z,17.20
2023-05-16T13:12:28.524Z,17.30
2023-05-16T13:14:55.503Z,17.40
2023-05-16T13:17:23.660Z,17.60
2023-05-16T13:19:50.489Z,17.80
2023-05-16T13:22:17.077Z,17.90
2023-05-16T13:24:43.660Z,17.90
2023-05-16T13:27:10.223Z,17.80
2023-05-16T13:29:37.165Z,18.00
2023-05-16T13:32:04.419Z,18.10
2023-05-16T13:34:32.153Z,18.10
2023-05-16T13:36:58.732Z,18.10
2023-05-16T13:39:25.327Z,18.00
2023-05-16T13:41:52.026Z,18.00
2023-05-16T13:44:18.637Z,18.00
2023-05-16T13:46:45.884Z,18.00
2023-05-16T13:49:12.488Z,17.90
2023-05-16T13:51:39.091Z,17.80
2023-05-16T13:54:05.664Z,17.80
2023-05-16T13:56:32.234Z,17.60
2023-05-16T13:59:03.817Z,17.60
2023-05-16T14:01:32.916Z,17.70
2023-05-16T14:03:59.722Z,17.70
2023-05-16T14:06:26.429Z,17.70
2023-05-16T14:08:52.992Z,17.70
2023-05-16T14:11:19.927Z,17.70
2023-05-16T14:13:46.672Z,17.70
2023-05-16T14:16:13.333Z,17.60
2023-05-16T14:18:39.972Z,17.60
2023-05-16T14:21:06.713Z,17.60
2023-05-16T14:23:33.584Z,17.60
2023-05-16T14:26:01.096Z,17.70
2023-05-16T14:28:27.798Z,17.70
2023-05-16T14:30:54.449Z,17.70
2023-05-16T14:33:21.274Z,17.80
2023-05-16T14:35:49.996Z,17.80
2023-05-16T14:38:16.816Z,17.80
2023-05-16T14:40:43.412Z,17.80
2023-05-16T14:43:10.145Z,17.90
2023-05-16T14:45:37.372Z,17.80
2023-05-16T14:48:06.725Z,17.80
2023-05-16T14:50:35.197Z,17.70
2023-05-16T14:53:01.809Z,17.70
2023-05-16T14:55:28.676Z,17.60
2023-05-16T14:57:59.678Z,17.50
2023-05-16T15:00:27.115Z,17.50
2023-05-16T15:02:54.094Z,17.50
2023-05-16T15:05:20.926Z,17.40
2023-05-16T15:07:47.679Z,17.30
2023-05-16T15:10:14.238Z,17.30
2023-05-16T15:12:41.076Z,17.20
2023-05-16T15:15:11.863Z,17.20
2023-05-16T15:17:40.369Z,17.20
2023-05-16T15:20:08.282Z,17.10
2023-05-16T15:22:35.439Z,17.10
2023-05-16T15:25:02.518Z,17.10
2023-05-16T15:27:29.112Z,17.10
2023-05-16T15:29:55.692Z,17.10
2023-05-16T15:32:23.382Z,17.10
2023-05-16T15:34:50.043Z,17.10
2023-05-16T15:37:18.420Z,17.20
2023-05-16T15:39:45.175Z,17.20
2023-05-16T15:42:11.756Z,17.20
2023-05-16T15:44:38.554Z,17.10
2023-05-16T15:47:05.323Z,17.10
2023-05-16T15:49:31.889Z,17.10
2023-05-16T15:51:58.499Z,17.00
2023-05-16T15:54:25.086Z,17.00
2023-05-16T15:56:51.910Z,16.90
2023-05-16T15:59:18.573Z,17.00
2023-05-16T16:01:45.259Z,17.00
2023-05-16T16:04:11.921Z,17.00
2023-05-16T16:06:38.479Z,17.00
2023-05-16T16:09:05.113Z,16.90
2023-05-16T16:11:31.798Z,16.90
2023-05-16T16:13:58.401Z,16.90
2023-05-16T16:16:25.055Z,16.90
2023-05-16T16:18:51.723Z,16.80
2023-05-16T16:21:18.439Z,16.80
2023-05-16T16:23:45.034Z,16.80
2023-05-16T16:26:11.718Z,16.80
2023-05-16T16:28:38.290Z,16.80
2023-05-16T16:31:05.002Z,16.80
2023-05-16T16:33:31.937Z,16.80
2023-05-16T16:35:59.306Z,16.90
2023-05-16T16:38:25.972Z,16.90
2023-05-16T16:40:52.518Z,16.90
2023-05-16T16:43:19.081Z,16.90
2023-05-16T16:45:45.621Z,16.90
2023-05-16T16:48:12.311Z,16.80
2023-05-16T16:50:38.940Z,16.80
2023-05-16T16:53:05.588Z,16.80
2023-05-16T16:55:32.223Z,16.80
2023-05-16T16:57:58.830Z,16.90
2023-05-16T17:00:25.379Z,16.90
2023-05-16T17:02:52.143Z,16.90
2023-05-16T17:05:18.798Z,16.90
2023-05-16T17:07:45.447Z,17.00
2023-05-16T17:10:12.080Z,17.10
2023-05-16T17:12:48.852Z,17.10
2023-05-16T17:15:17.230Z,17.10
2023-05-16T17:17:45.447Z,17.20
2023-05-16T17:20:13.537Z,17.20
2023-05-16T17:22:40.153Z,17.30
2023-05-16T17:25:07.992Z,17.20
2023-05-16T17:27:34.542Z,17.10
2023-05-16T17:30:01.117Z,17.00
2023-05-16T17:32:28.030Z,17.00
2023-05-16T17:34:55.177Z,16.90
2023-05-16T17:37:21.789Z,16.80
2023-05-16T17:39:48.337Z,16.70
2023-05-16T17:42:14.914Z,16.70
2023-05-16T17:44:41.484Z,16.70
2023-05-16T17:47:08.070Z,16.70
2023-05-16T17:49:35.393Z,16.70
2023-05-16T17:52:01.992Z,16.70
2023-05-16T17:54:31.884Z,16.60
2023-05-16T17:56:58.652Z,16.60
2023-05-16T17:59:27.298Z,16.60
2023-05-16T18:01:58.092Z,16.60
2023-05-16T18:04:25.122Z,16.60
2023-05-16T18:06:55.489Z,16.60
2023-05-16T18:09:22.102Z,16.50
2023-05-16T18:11:49.041Z,16.50
2023-05-16T18:14:15.654Z,16.40
2023-05-16T18:16:42.276Z,16.30
2023-05-16T18:19:09.114Z,16.20
2023-05-16T18:21:37.413Z,16.10
2023-05-16T18:24:05.201Z,15.90
2023-05-16T18:26:31.932Z,15.80
2023-05-16T18:28:58.860Z,15.70
2023-05-16T18:31:25.537Z,15.70
2023-05-16T18:33:52.174Z,15.60
2023-05-16T18:36:18.872Z,15.50
2023-05-16T18:38:45.656Z,15.50
2023-05-16T18:41:12.248Z,15.40
2023-05-16T18:43:40.610Z,15.30
2023-05-16T18:46:07.178Z,15.20
2023-05-16T18:48:35.958Z,15.20
2023-05-16T18:51:03.004Z,15.10
2023-05-16T18:53:29.604Z,15.00
2023-05-16T18:55:56.301Z,14.90
2023-05-16T18:58:22.869Z,14.70
2023-05-16T19:00:49.484Z,14.70
2023-05-16T19:03:17.098Z,14.60
2023-05-16T19:05:44.152Z,14.50
2023-05-16T19:08:10.963Z,14.40
2023-05-16T19:10:38.514Z,14.30
2023-05-16T19:13:08.831Z,14.20
2023-05-16T19:15:36.407Z,14.10
2023-05-16T19:18:04.842Z,14.00
2023-05-16T19:20:32.690Z,13.90
2023-05-16T19:22:59.252Z,13.80
2023-05-16T19:25:26.390Z,13.70
2023-05-16T19:27:53.225Z,13.60
2023-05-16T19:30:19.950Z,13.50
2023-05-16T19:32:46.545Z,13.40
2023-05-16T19:35:13.431Z,13.20
2023-05-16T19:37:40.029Z,13.10
2023-05-16T19:40:07.039Z,13.00
2023-05-16T19:42:33.642Z,13.00
2023-05-16T19:45:00.235Z,12.80
2023-05-16T19:47:26.827Z,12.70
2023-05-16T19:49:53.476Z,12.70
2023-05-16T19:52:20.070Z,12.60
2023-05-16T19:54:46.656Z,12.50
2023-05-16T19:57:13.230Z,12.40
2023-05-16T19:59:39.810Z,12.30
2023-05-16T20:02:06.806Z,12.20
2023-05-16T20:04:33.561Z,12.00
2023-05-16T20:07:00.471Z,11.90
2023-05-16T20:09:28.483Z,11.80
2023-05-16T20:11:57.253Z,11.70
2023-05-16T20:14:23.984Z,11.70
2023-05-16T20:16:51.385Z,11.50
2023-05-16T20:19:19.197Z,11.50
2023-05-16T20:21:45.954Z,11.40
2023-05-16T20:24:12.554Z,11.30
2023-05-16T20:26:39.150Z,11.30
2023-05-16T20:29:05.785Z,11.20
2023-05-16T20:31:32.441Z,11.10
2023-05-16T20:33:59.062Z,11.00
2023-05-16T20:36:25.683Z,11.00
2023-05-16T20:38:52.292Z,10.90
2023-05-16T20:41:18.885Z,10.80
2023-05-16T20:43:46.802Z,10.70
2023-05-16T20:46:13.399Z,10.70
2023-05-16T20:48:40.067Z,10.60
2023-05-16T20:51:06.803Z,10.60
2023-05-16T20:53:33.398Z,10.50
2023-05-16T20:55:59.942Z,10.50
2023-05-16T20:58:26.646Z,10.40
2023-05-16T21:00:53.207Z,10.40
2023-05-16T21:03:19.759Z,10.40
2023-05-16T21:05:46.349Z,10.40
2023-05-16T21:08:12.956Z,10.30
2023-05-16T21:10:39.570Z,10.40
2023-05-16T21:13:06.157Z,10.30
2023-05-16T21:15:32.814Z,10.30
2023-05-16T21:17:59.555Z,10.20
2023-05-16T21:20:28.433Z,10.30
2023-05-16T21:22:54.999Z,10.20
2023-05-16T21:25:21.619Z,10.10
2023-05-16T21:27:48.218Z,10.20
2023-05-16T21:30:14.881Z,10.10
2023-05-16T21:32:41.543Z,10.10
2023-05-16T21:35:09.323Z,10.10
2023-05-16T21:37:35.899Z,10.10
2023-05-16T21:40:02.516Z,10.10
2023-05-16T21:42:29.113Z,10.10
2023-05-16T21:44:55.697Z,10.10
2023-05-16T21:47:22.320Z,10.10
2023-05-16T21:49:48.922Z,10.10
2023-05-16T21:52:15.580Z,10.00
2023-05-16T21:54:42.209Z,10.10
2023-05-16T21:57:08.760Z,10.10
2023-05-16T21:59:35.438Z,10.00
2023-05-16T22:02:02.085Z,10.10
2023-05-16T22:04:28.764Z,10.10
2023-05-16T22:06:55.395Z,10.10
2023-05-16T22:09:21.962Z,10.10
2023-05-16T22:11:48.536Z,10.20
2023-05-16T22:14:15.093Z,10.20
2023-05-16T22:16:41.788Z,10.20
2023-05-16T22:19:09.080Z,10.20
2023-05-16T22:21:36.044Z,10.20
2023-05-16T22:24:03.038Z,10.20
2023-05-16T22:26:29.662Z,10.20
2023-05-16T22:28:56.247Z,10.10
2023-05-16T22:31:22.872Z,10.10
2023-05-16T22:33:49.474Z,10.10
2023-05-16T22:36:16.100Z,10.00
2023-05-16T22:38:42.694Z,9.90
2023-05-16T22:41:09.300Z,9.90
2023-05-16T22:43:35.849Z,9.80
2023-05-16T22:46:03.292Z,9.80
2023-05-16T22:48:30.467Z,9.70
2023-05-16T22:50:57.363Z,9.60
2023-05-16T22:53:23.963Z,9.60
2023-05-16T22:55:50.802Z,9.60
2023-05-16T22:58:17.849Z,9.50
2023-05-16T23:00:44.693Z,9.40
2023-05-16T23:03:11.486Z,9.40
2023-05-16T23:05:38.237Z,9.30
2023-05-16T23:08:05.058Z,9.20
2023-05-16T23:10:31.916Z,9.10
2023-05-16T23:12:58.681Z,9.10
2023-05-16T23:15:25.260Z,9.00
2023-05-16T23:17:52.057Z,8.90
2023-05-16T23:20:18.860Z,8.80
2023-05-16T23:22:45.578Z,8.80
2023-05-16T23:25:12.153Z,8.80
2023-05-16T23:27:38.745Z,8.70
2023-05-16T23:30:07.751Z,8.70
2023-05-16T23:32:34.477Z,8.60
2023-05-16T23:35:01.141Z,8.50
2023-05-16T23:37:27.737Z,8.50
2023-05-16T23:39:54.335Z,8.50
2023-05-16T23:42:21.108Z,8.40
2023-05-16T23:44:47.671Z,8.40
2023-05-16T23:47:14.267Z,8.40
2023-05-16T23:49:40.862Z,8.40
2023-05-16T23:52:07.570Z,8.30
2023-05-16T23:54:34.376Z,8.30
2023-05-16T23:57:01.181Z,8.30
2023-05-16T23:59:27.740Z,8.20
